Time;durP1;ratioP1;P1;durP2;ratioP2;P2;SDS_P1;SDS_P2;PMS_P1;PMS_P2;Temp;Humidity;BMP_temperature;BMP_pressure;BME280_temperature;BME280_humidity;BME280_pressure;Samples;Min_cycle;Max_cycle;Signal;HPM_P1;HPM_P2
2020/12/15 00:00:32;;;;;;;16.00;11.47;;;5.70;92.10;13.30;99740.00;;;;5032149;28;20183;-66
2020/12/15 00:02:57;;;;;;;17.57;13.37;;;5.70;91.70;13.20;99717.00;;;;5031486;28;20199;-67
2020/12/15 00:05:23;;;;;;;16.43;12.50;;;5.70;91.70;13.40;99718.00;;;;5032842;28;20695;-67
2020/12/15 00:07:49;;;;;;;17.50;13.00;;;5.70;91.70;13.20;99721.00;;;;5033273;28;20598;-67
2020/12/15 00:10:14;;;;;;;18.13;12.17;;;5.70;91.80;13.40;99730.00;;;;5031685;28;20190;-67
2020/12/15 00:12:41;;;;;;;15.60;12.07;;;5.70;91.80;13.30;99728.00;;;;5031668;28;20234;-67
2020/12/15 00:15:08;;;;;;;21.30;13.88;;;5.70;91.80;13.50;99724.00;;;;5033255;28;20215;-67
2020/12/15 00:17:34;;;;;;;18.73;13.45;;;5.70;91.80;13.40;99717.00;;;;5031569;28;20241;-67
2020/12/15 00:19:59;;;;;;;16.60;13.40;;;5.70;91.80;13.50;99725.00;;;;5015508;28;20641;-67
2020/12/15 00:22:25;;;;;;;14.77;11.93;;;5.70;91.80;13.50;99726.00;;;;5031343;28;20198;-67
2020/12/15 00:24:51;;;;;;;16.43;12.77;;;5.70;91.80;13.30;99730.00;;;;5032469;28;20175;-67
2020/12/15 00:27:16;;;;;;;17.10;13.20;;;5.70;91.70;13.40;99727.00;;;;5015523;28;20297;-67
2020/12/15 00:29:42;;;;;;;17.80;13.70;;;5.70;91.80;13.40;99723.00;;;;5030839;28;20252;-67
2020/12/15 00:32:11;;;;;;;16.33;12.90;;;5.70;91.70;13.40;99721.00;;;;5030854;28;20712;-67
2020/12/15 00:34:37;;;;;;;16.63;13.50;;;5.70;91.80;13.50;99730.00;;;;5031308;28;20242;-67
2020/12/15 00:37:02;;;;;;;15.18;11.65;;;5.70;91.80;13.40;99741.00;;;;5031693;28;20222;-67
2020/12/15 00:39:28;;;;;;;15.87;13.50;;;5.70;91.80;13.50;99741.00;;;;5030736;28;20579;-67
2020/12/15 00:41:54;;;;;;;16.90;13.57;;;5.70;91.70;13.30;99742.00;;;;5031796;28;20202;-67
2020/12/15 00:44:19;;;;;;;17.37;13.20;;;5.70;91.70;13.30;99752.00;;;;5031836;28;20540;-68
2020/12/15 00:46:51;;;;;;;15.20;11.50;;;5.70;91.80;13.50;99744.00;;;;5032403;28;20202;-67
2020/12/15 00:49:18;;;;;;;14.85;12.13;;;5.70;91.70;13.40;99747.00;;;;5031350;28;20203;-67
2020/12/15 00:51:46;;;;;;;14.65;12.40;;;5.70;91.80;13.40;99749.00;;;;5031293;28;20206;-66
2020/12/15 00:54:11;;;;;;;15.38;11.45;;;5.70;91.80;13.30;99746.00;;;;5031445;28;20194;-67
2020/12/15 00:56:40;;;;;;;14.53;11.23;;;5.70;91.70;13.30;99734.00;;;;5029382;28;20611;-67
2020/12/15 00:59:06;;;;;;;14.85;11.65;;;5.70;91.70;13.40;99743.00;;;;5040447;28;20245;-67
2020/12/15 01:01:31;;;;;;;13.83;10.50;;;5.70;91.80;13.30;99731.00;;;;5031566;28;20687;-67
2020/12/15 01:03:57;;;;;;;16.77;13.13;;;5.70;91.80;13.30;99728.00;;;;5044153;28;20201;-67
2020/12/15 01:06:23;;;;;;;14.80;12.40;;;5.70;91.80;13.30;99730.00;;;;5049764;28;20206;-67
2020/12/15 01:08:49;;;;;;;15.90;12.43;;;5.70;91.80;13.20;99719.00;;;;5050005;28;20182;-68
2020/12/15 01:11:15;;;;;;;15.55;11.98;;;5.70;91.80;13.10;99715.00;;;;5032817;28;20212;-67
2020/12/15 01:13:41;;;;;;;15.55;10.93;;;5.70;91.80;13.20;99718.00;;;;5032065;28;20678;-67
2020/12/15 01:16:07;;;;;;;15.37;12.90;;;5.70;91.80;13.20;99722.00;;;;5035671;28;20210;-67
2020/12/15 01:18:34;;;;;;;14.40;11.87;;;5.70;91.80;13.20;99732.00;;;;5029436;28;20300;-67
2020/12/15 01:21:02;;;;;;;15.27;10.85;;;5.70;91.70;13.40;99729.00;;;;5030384;28;20469;-67
2020/12/15 01:23:28;;;;;;;15.30;12.15;;;5.70;91.80;13.30;99723.00;;;;5012862;28;20187;-67
2020/12/15 01:25:54;;;;;;;15.85;12.00;;;5.70;91.80;13.30;99723.00;;;;5028771;28;20645;-66
2020/12/15 01:28:20;;;;;;;14.10;11.70;;;5.70;91.80;13.30;99724.00;;;;5013479;28;20191;-66
2020/12/15 01:30:46;;;;;;;15.50;11.63;;;5.60;91.70;13.20;99727.00;;;;5031324;28;20265;-66
2020/12/15 01:33:11;;;;;;;15.90;13.00;;;5.70;91.80;13.30;99716.00;;;;5013722;28;20187;-67
2020/12/15 01:35:37;;;;;;;14.00;10.63;;;5.70;91.80;13.30;99704.00;;;;5028228;28;20214;-67
2020/12/15 01:38:03;;;;;;;15.83;12.27;;;5.70;91.80;13.30;99705.00;;;;5028904;28;20207;-67
2020/12/15 01:40:28;;;;;;;14.90;9.93;;;5.70;91.80;13.40;99695.00;;;;5031061;28;20195;-68
2020/12/15 01:42:54;;;;;;;15.30;11.93;;;5.70;91.80;13.20;99685.00;;;;5029958;28;20684;-67
2020/12/15 01:45:20;;;;;;;14.67;12.23;;;5.70;91.80;13.30;99686.00;;;;5030703;28;20198;-68
2020/12/15 01:47:46;;;;;;;15.32;11.68;;;5.70;91.80;13.20;99672.00;;;;5030050;28;20202;-67
2020/12/15 01:50:11;;;;;;;14.27;10.47;;;5.70;91.80;13.40;99676.00;;;;5029757;28;20194;-67
2020/12/15 01:52:37;;;;;;;15.63;11.97;;;5.60;91.70;13.20;99682.00;;;;5030077;28;20206;-68
2020/12/15 01:55:03;;;;;;;15.77;11.03;;;5.60;91.70;13.20;99682.00;;;;5029246;28;20466;-67
2020/12/15 01:57:28;;;;;;;14.97;11.10;;;5.60;91.70;13.40;99688.00;;;;5029821;28;20278;-67
2020/12/15 01:59:54;;;;;;;13.50;10.53;;;5.60;91.70;13.40;99687.00;;;;5029263;28;20503;-67
2020/12/15 02:02:20;;;;;;;13.40;10.73;;;5.70;91.80;13.50;99681.00;;;;5029190;28;20238;-67
2020/12/15 02:04:48;;;;;;;14.43;10.00;;;5.70;91.80;13.40;99676.00;;;;5029772;28;20656;-67
2020/12/15 02:07:14;;;;;;;16.48;12.02;;;5.60;91.70;13.30;99678.00;;;;5029547;28;20673;-67
2020/12/15 02:09:40;;;;;;;13.63;9.67;;;5.60;91.80;13.40;99667.00;;;;5012155;28;20186;-67
2020/12/15 02:12:05;;;;;;;15.60;12.50;;;5.60;91.70;13.30;99671.00;;;;5029460;28;20428;-67
2020/12/15 02:14:31;;;;;;;14.10;10.53;;;5.60;91.70;13.30;99677.00;;;;5013010;28;20419;-67
2020/12/15 02:16:57;;;;;;;14.10;10.93;;;5.60;91.80;13.30;99676.00;;;;5028576;28;20225;-68
2020/12/15 02:19:22;;;;;;;16.07;12.33;;;5.60;91.80;13.10;99661.00;;;;5029509;28;20211;-67
2020/12/15 02:21:57;;;;;;;14.50;11.10;;;5.60;91.80;13.40;99646.00;;;;5029243;28;20207;-67
2020/12/15 02:24:24;;;;;;;13.60;9.68;;;5.60;91.80;13.40;99657.00;;;;5028846;28;20183;-67
2020/12/15 02:26:49;;;;;;;14.30;11.18;;;5.60;91.80;13.40;99660.00;;;;5030354;28;20554;-67
2020/12/15 02:29:15;;;;;;;13.17;10.57;;;5.60;91.80;13.30;99651.00;;;;5029786;28;20205;-67
2020/12/15 02:31:41;;;;;;;15.50;11.10;;;5.60;91.80;13.30;99657.00;;;;5012425;28;20206;-67
2020/12/15 02:34:06;;;;;;;14.70;10.90;;;5.60;91.80;13.30;99662.00;;;;5029499;28;20230;-67
2020/12/15 02:36:32;;;;;;;14.20;10.53;;;5.60;91.80;13.20;99665.00;;;;5029153;28;20202;-67
2020/12/15 02:39:06;;;;;;;13.43;10.93;;;5.60;91.80;13.30;99676.00;;;;5028234;28;20206;-67
2020/12/15 02:41:32;;;;;;;14.73;12.30;;;5.60;92.20;13.30;99678.00;;;;5028696;28;20653;-67
2020/12/15 02:43:57;;;;;;;14.63;11.10;;;5.60;91.80;13.30;99684.00;;;;5030794;28;20262;-67
2020/12/15 02:46:23;;;;;;;13.23;10.50;;;5.60;91.80;13.40;99676.00;;;;5028258;28;20320;-67
2020/12/15 02:48:48;;;;;;;14.90;11.10;;;5.60;91.80;13.40;99674.00;;;;5029656;28;20182;-67
2020/12/15 02:51:14;;;;;;;13.10;9.43;;;5.60;91.80;13.30;99680.00;;;;5028380;28;20678;-67
2020/12/15 02:53:40;;;;;;;14.07;10.97;;;5.60;91.80;13.30;99674.00;;;;5028332;28;20179;-67
2020/12/15 02:56:05;;;;;;;12.40;10.20;;;5.60;91.80;13.30;99670.00;;;;5028215;28;20282;-67
2020/12/15 02:58:31;;;;;;;15.20;11.30;;;5.60;91.80;13.40;99676.00;;;;5029654;28;20564;-67
2020/12/15 03:00:57;;;;;;;14.40;10.70;;;5.60;91.80;13.30;99657.00;;;;5028827;28;20202;-67
2020/12/15 03:03:22;;;;;;;14.20;10.77;;;5.60;91.80;13.10;99644.00;;;;5012287;28;20183;-68
2020/12/15 03:05:48;;;;;;;14.30;10.57;;;5.60;91.80;13.40;99664.00;;;;5027970;28;20547;-67
2020/12/15 03:08:14;;;;;;;13.87;10.47;;;5.60;91.80;13.30;99673.00;;;;5029628;28;20189;-68
2020/12/15 03:10:39;;;;;;;14.00;10.00;;;5.60;91.80;13.50;99673.00;;;;5029779;28;20175;-68
2020/12/15 03:13:05;;;;;;;15.77;11.30;;;5.60;91.80;13.50;99673.00;;;;5029338;28;20253;-68
2020/12/15 03:15:31;;;;;;;14.73;10.93;;;5.60;91.80;13.30;99683.00;;;;5028510;28;20182;-67
2020/12/15 03:17:56;;;;;;;13.40;10.27;;;5.60;92.20;13.30;99700.00;;;;5028664;28;20285;-68
2020/12/15 03:20:22;;;;;;;13.27;9.90;;;5.60;91.80;13.10;99700.00;;;;5028710;28;20239;-68
2020/12/15 03:22:47;;;;;;;15.20;10.80;;;5.60;91.80;13.40;99696.00;;;;5011574;28;20733;-67
2020/12/15 03:25:19;;;;;;;13.77;10.50;;;5.60;91.80;13.30;99696.00;;;;5028440;28;20607;-68
2020/12/15 03:27:47;;;;;;;12.25;9.55;;;5.60;91.80;13.40;99685.00;;;;5028091;28;20329;-68
2020/12/15 03:30:12;;;;;;;13.60;11.05;;;5.60;91.80;13.20;99694.00;;;;5028412;28;20614;-68
2020/12/15 03:32:38;;;;;;;15.87;10.07;;;5.60;91.80;13.10;99691.00;;;;5028756;28;20207;-68
2020/12/15 03:35:05;;;;;;;12.90;9.30;;;5.60;91.80;13.40;99682.00;;;;5011060;28;20597;-67
2020/12/15 03:37:30;;;;;;;14.02;10.48;;;5.60;91.80;13.30;99685.00;;;;5028334;28;20209;-68
2020/12/15 03:39:56;;;;;;;13.17;10.73;;;5.60;91.80;13.20;99692.00;;;;5029011;28;20214;-68
2020/12/15 03:42:22;;;;;;;15.70;10.20;;;5.60;91.80;13.20;99688.00;;;;5029428;28;20206;-67
2020/12/15 03:44:47;;;;;;;14.33;10.20;;;5.60;91.80;13.40;99697.00;;;;5028209;28;20191;-68
2020/12/15 03:47:13;;;;;;;14.60;10.80;;;5.60;91.80;13.30;99702.00;;;;5011580;28;20206;-68
2020/12/15 03:49:39;;;;;;;13.30;10.20;;;5.60;92.20;13.40;99708.00;;;;5027867;28;20557;-68
2020/12/15 03:52:04;;;;;;;12.80;10.00;;;5.60;91.80;13.30;99705.00;;;;5029169;28;20218;-68
2020/12/15 03:54:30;;;;;;;14.60;10.40;;;5.60;91.80;13.30;99692.00;;;;5029900;28;20639;-67
2020/12/15 03:56:56;;;;;;;11.60;9.30;;;5.60;91.80;13.20;99688.00;;;;5028369;28;20213;-67
2020/12/15 03:59:21;;;;;;;13.93;10.50;;;5.60;91.80;13.30;99706.00;;;;5029214;28;20210;-69
2020/12/15 04:01:47;;;;;;;15.13;11.00;;;5.60;91.80;13.30;99703.00;;;;5027828;28;20728;-68
2020/12/15 04:04:12;;;;;;;12.80;10.33;;;5.60;91.80;13.10;99703.00;;;;5029708;28;20546;-68
2020/12/15 04:06:38;;;;;;;13.33;9.97;;;5.60;91.80;13.20;99691.00;;;;5028588;28;20256;-67
2020/12/15 04:09:04;;;;;;;14.60;10.17;;;5.60;91.80;13.30;99701.00;;;;5027984;28;20194;-68
2020/12/15 04:11:29;;;;;;;13.90;10.43;;;5.60;91.80;13.20;99704.00;;;;5029771;28;20234;-68
2020/12/15 04:13:55;;;;;;;12.03;9.67;;;5.60;91.80;13.10;99700.00;;;;5028403;28;20178;-68
2020/12/15 04:16:21;;;;;;;13.00;9.90;;;5.60;91.80;13.20;99703.00;;;;5027519;28;20205;-68
2020/12/15 04:18:46;;;;;;;15.10;11.03;;;5.60;91.80;12.90;99693.00;;;;5031541;28;20211;-67
2020/12/15 04:21:12;;;;;;;15.53;10.60;;;5.60;91.80;13.30;99703.00;;;;5030835;28;20210;-68
2020/12/15 04:23:38;;;;;;;14.30;10.40;;;5.60;91.80;13.10;99704.00;;;;5031270;28;20553;-68
2020/12/15 04:26:04;;;;;;;13.30;10.75;;;5.60;91.80;13.10;99702.00;;;;5031757;28;20242;-68
2020/12/15 04:28:29;;;;;;;14.87;10.33;;;5.60;91.80;13.10;99701.00;;;;5031694;28;20219;-68
2020/12/15 04:30:55;;;;;;;14.30;10.50;;;5.60;91.80;13.10;99702.00;;;;5030674;28;20187;-67
2020/12/15 04:33:21;;;;;;;15.97;10.63;;;5.60;91.80;13.10;99683.00;;;;5031521;28;20229;-67
2020/12/15 04:35:47;;;;;;;14.73;10.07;;;5.60;91.80;13.10;99690.00;;;;5031103;28;20195;-67
2020/12/15 04:38:12;;;;;;;14.90;11.13;;;5.60;91.80;13.20;99689.00;;;;5030589;28;20210;-67
2020/12/15 04:40:38;;;;;;;14.63;10.70;;;5.60;91.80;13.30;99687.00;;;;5032021;28;20479;-67
2020/12/15 04:43:04;;;;;;;14.53;10.47;;;5.60;91.90;13.30;99679.00;;;;5015040;28;20194;-68
2020/12/15 04:45:29;;;;;;;14.03;10.33;;;5.60;91.90;13.30;99688.00;;;;5030880;28;20187;-67
2020/12/15 04:48:07;;;;;;;13.60;10.47;;;5.60;91.90;13.10;99688.00;;;;5030694;28;20210;-67
2020/12/15 04:50:37;;;;;;;17.05;12.23;;;5.60;91.90;13.10;99685.00;;;;5031318;28;20179;-67
2020/12/15 04:53:10;;;;;;;13.77;10.48;;;5.60;91.90;13.10;99697.00;;;;5030532;28;20232;-67
2020/12/15 04:55:37;;;;;;;13.98;10.68;;;5.60;91.90;13.30;99698.00;;;;5030670;28;20638;-67
2020/12/15 04:58:03;;;;;;;13.93;10.70;;;5.60;91.90;13.30;99688.00;;;;5031247;28;20453;-67
2020/12/15 05:00:28;;;;;;;13.75;10.57;;;5.60;91.90;13.20;99691.00;;;;5030481;28;20188;-67
2020/12/15 05:02:55;;;;;;;13.80;11.43;;;5.60;91.90;13.10;99689.00;;;;5030384;28;20211;-67
2020/12/15 05:05:23;;;;;;;14.68;10.00;;;5.60;91.90;13.20;99703.00;;;;5031262;28;20183;-67
2020/12/15 05:07:49;;;;;;;13.70;9.90;;;5.60;91.90;13.10;99697.00;;;;5030570;28;20210;-67
2020/12/15 05:10:17;;;;;;;13.93;11.10;;;5.60;91.90;13.10;99705.00;;;;5031014;28;20182;-67
2020/12/15 05:12:43;;;;;;;13.55;11.35;;;5.60;91.90;13.20;99713.00;;;;5029730;28;20211;-67
2020/12/15 05:15:10;;;;;;;14.33;11.23;;;5.60;91.90;13.20;99701.00;;;;5030645;28;20531;-67
2020/12/15 05:17:36;;;;;;;14.75;10.93;;;5.60;91.90;13.20;99700.00;;;;5031149;28;20934;-67
2020/12/15 05:20:03;;;;;;;14.70;11.60;;;5.60;91.90;13.20;99705.00;;;;5030323;28;20211;-67
2020/12/15 05:22:46;;;;;;;14.40;10.23;;;5.60;91.90;13.10;99697.00;;;;5030950;28;20519;-67
2020/12/15 05:25:37;;;;;;;16.20;11.75;;;5.60;91.90;13.10;99705.00;;;;5031017;28;20186;-67
2020/12/15 05:28:13;;;;;;;15.90;11.00;;;5.60;91.90;13.10;99711.00;;;;5031259;28;20642;-67
2020/12/15 05:30:39;;;;;;;14.75;10.27;;;5.60;91.90;13.20;99701.00;;;;5030875;28;20175;-67
2020/12/15 05:33:13;;;;;;;18.60;11.30;;;5.60;91.90;13.00;99719.00;;;;5030613;28;20202;-67
2020/12/15 05:35:38;;;;;;;13.55;11.02;;;5.50;91.90;13.30;99708.00;;;;5030111;28;20179;-67
2020/12/15 05:38:05;;;;;;;16.20;10.53;;;5.60;91.90;13.30;99710.00;;;;5031277;28;20210;-66
2020/12/15 05:40:31;;;;;;;17.30;12.15;;;5.60;91.90;13.10;99717.00;;;;5031208;28;20229;-67
2020/12/15 05:42:59;;;;;;;18.20;11.30;;;5.60;91.90;13.10;99721.00;;;;5029872;28;20689;-67
2020/12/15 05:45:25;;;;;;;15.68;11.35;;;5.60;91.90;13.20;99718.00;;;;5030593;28;20179;-66
2020/12/15 05:48:03;;;;;;;14.85;11.07;;;5.60;91.90;13.30;99723.00;;;;5013018;28;20683;-67
2020/12/15 05:50:29;;;;;;;15.40;11.20;;;5.60;91.90;13.30;99719.00;;;;5030491;28;20183;-67
2020/12/15 05:53:00;;;;;;;15.27;10.93;;;5.60;91.90;13.10;99711.00;;;;5029316;28;20206;-67
2020/12/15 05:55:26;;;;;;;17.08;11.65;;;5.50;91.80;13.20;99713.00;;;;5029730;28;20776;-67
2020/12/15 05:57:53;;;;;;;15.40;11.35;;;5.60;91.90;13.30;99712.00;;;;5029948;28;20199;-67
2020/12/15 06:00:18;;;;;;;17.67;12.48;;;5.50;91.80;13.10;99696.00;;;;5030167;28;20266;-68
2020/12/15 06:02:44;;;;;;;15.00;10.53;;;5.50;91.80;13.20;99694.00;;;;5029369;28;20509;-67
2020/12/15 06:05:10;;;;;;;14.77;10.67;;;5.60;91.90;13.30;99705.00;;;;5030473;28;20434;-66
2020/12/15 06:07:36;;;;;;;16.37;11.00;;;5.50;91.80;13.10;99695.00;;;;5029819;28;20199;-67
2020/12/15 06:10:04;;;;;;;14.27;10.80;;;5.50;91.80;13.10;99700.00;;;;5012483;28;20187;-68
2020/12/15 06:12:29;;;;;;;14.68;9.73;;;5.60;91.90;13.00;99689.00;;;;5029146;28;20470;-67
2020/12/15 06:14:55;;;;;;;17.93;10.83;;;5.50;91.80;13.20;99695.00;;;;5029849;28;20178;-67
2020/12/15 06:17:21;;;;;;;17.17;12.00;;;5.50;91.80;13.20;99705.00;;;;5029869;28;20203;-67
2020/12/15 06:19:53;;;;;;;17.35;12.02;;;5.50;91.80;13.00;99707.00;;;;5029529;28;20214;-67
2020/12/15 06:22:22;;;;;;;15.30;11.52;;;5.50;91.80;13.10;99716.00;;;;5012772;28;20199;-67
2020/12/15 06:24:58;;;;;;;14.55;10.95;;;5.50;91.90;13.10;99702.00;;;;5029138;28;20179;-67
2020/12/15 06:27:34;;;;;;;15.27;10.82;;;5.50;91.80;13.00;99702.00;;;;5029564;28;20694;-67
2020/12/15 06:30:00;;;;;;;13.60;10.77;;;5.50;91.90;13.10;99708.00;;;;5029213;28;20195;-67
2020/12/15 06:32:26;;;;;;;16.57;10.77;;;5.50;91.90;13.10;99720.00;;;;5012480;28;20621;-67
2020/12/15 06:34:52;;;;;;;14.03;10.47;;;5.50;91.80;13.10;99717.00;;;;5030858;28;20240;-66
2020/12/15 06:37:19;;;;;;;16.50;11.52;;;5.50;91.90;13.10;99710.00;;;;5029538;28;20538;-68
2020/12/15 06:40:00;;;;;;;14.60;10.50;;;5.50;91.80;13.10;99700.00;;;;5028732;28;20297;-66
2020/12/15 06:42:26;;;;;;;14.00;10.20;;;5.50;91.80;13.10;99708.00;;;;5029592;28;20203;-66
2020/12/15 06:45:07;;;;;;;15.38;10.68;;;5.50;91.80;13.20;99706.00;;;;5028268;28;20201;-67
2020/12/15 06:47:37;;;;;;;14.60;10.60;;;5.50;91.80;13.30;99706.00;;;;5030479;28;20198;-67
2020/12/15 06:50:17;;;;;;;13.48;9.48;;;5.50;91.80;13.10;99705.00;;;;5029329;28;20183;-67
2020/12/15 06:52:42;;;;;;;15.73;11.50;;;5.50;92.00;13.10;99714.00;;;;5029066;28;20199;-67
2020/12/15 06:55:08;;;;;;;13.37;9.87;;;5.50;91.80;12.90;99711.00;;;;5030040;28;20570;-67
2020/12/15 06:57:36;;;;;;;15.90;11.37;;;5.50;91.80;13.20;99712.00;;;;5028700;28;20230;-67
2020/12/15 07:00:11;;;;;;;16.25;11.13;;;5.50;91.80;13.10;99715.00;;;;5012286;28;20222;-67
2020/12/15 07:02:37;;;;;;;14.00;10.20;;;5.50;91.80;13.10;99712.00;;;;5029066;28;20294;-67
2020/12/15 07:05:23;;;;;;;14.33;10.10;;;5.50;91.80;13.20;99724.00;;;;5027878;28;20262;-67
2020/12/15 07:07:51;;;;;;;12.63;9.15;;;5.50;91.80;13.20;99716.00;;;;5030550;28;20465;-67
2020/12/15 07:10:19;;;;;;;13.70;10.35;;;5.50;91.80;13.20;99717.00;;;;5028902;28;20182;-66
2020/12/15 07:12:46;;;;;;;17.35;11.30;;;5.50;91.80;13.20;99721.00;;;;5028244;28;20207;-67
2020/12/15 07:15:12;;;;;;;14.85;10.85;;;5.50;91.80;13.00;99726.00;;;;5028535;28;20207;-67
2020/12/15 07:17:50;;;;;;;15.27;11.40;;;5.50;91.80;13.20;99720.00;;;;5028898;28;20280;-69
2020/12/15 07:20:20;;;;;;;11.95;8.68;;;5.50;91.80;13.30;99729.00;;;;5028745;28;20449;-67
2020/12/15 07:22:46;;;;;;;15.20;10.98;;;5.50;91.80;13.20;99738.00;;;;5028594;28;20206;-67
2020/12/15 07:25:12;;;;;;;13.00;9.70;;;5.50;91.80;13.00;99732.00;;;;5028606;28;20191;-67
2020/12/15 07:27:41;;;;;;;15.82;10.10;;;5.50;91.80;13.10;99722.00;;;;5027836;28;20465;-67
2020/12/15 07:30:12;;;;;;;14.57;11.95;;;5.50;91.80;13.10;99737.00;;;;5028791;28;20179;-67
2020/12/15 07:32:38;;;;;;;14.65;10.40;;;5.50;91.80;13.00;99741.00;;;;5028589;28;20203;-67
2020/12/15 07:35:09;;;;;;;15.50;11.23;;;5.50;91.80;13.00;99741.00;;;;5011709;28;20264;-67
2020/12/15 07:37:39;;;;;;;12.60;10.80;;;5.50;91.80;13.00;99742.00;;;;5028214;28;20467;-66
2020/12/15 07:40:07;;;;;;;16.75;11.05;;;5.50;91.80;13.00;99737.00;;;;5027732;28;20313;-66
2020/12/15 07:42:33;;;;;;;13.55;9.80;;;5.50;91.80;12.90;99746.00;;;;5028665;28;20213;-66
2020/12/15 07:45:00;;;;;;;14.93;11.30;;;5.50;91.80;13.10;99745.00;;;;5028289;28;20179;-67
2020/12/15 07:47:26;;;;;;;16.25;11.32;;;5.50;91.80;12.90;99740.00;;;;5028310;28;20206;-67
2020/12/15 07:49:57;;;;;;;14.07;10.53;;;5.50;91.80;13.00;99745.00;;;;5028274;28;20178;-68
2020/12/15 07:52:37;;;;;;;14.13;9.95;;;5.50;91.80;12.90;99755.00;;;;5030062;28;20527;-67
2020/12/15 07:55:13;;;;;;;12.70;9.13;;;5.50;91.80;13.00;99737.00;;;;5031899;28;20266;-67
2020/12/15 07:57:41;;;;;;;13.02;9.30;;;5.50;91.80;13.10;99748.00;;;;5032396;28;20234;-66
2020/12/15 08:00:16;;;;;;;13.80;10.13;;;5.50;91.80;13.10;99765.00;;;;5032497;28;20465;-67
2020/12/15 08:02:43;;;;;;;13.48;10.10;;;5.50;91.80;13.00;99747.00;;;;5030518;28;20202;-67
2020/12/15 08:05:23;;;;;;;12.65;9.93;;;5.50;91.80;13.20;99753.00;;;;5032297;28;20183;-66
2020/12/15 08:08:03;;;;;;;14.07;10.85;;;5.50;91.80;13.00;99751.00;;;;5031964;28;20202;-67
2020/12/15 08:10:33;;;;;;;16.70;11.40;;;5.50;91.80;13.10;99755.00;;;;5032150;28;20183;-67
2020/12/15 08:13:00;;;;;;;13.18;9.93;;;5.50;91.80;13.10;99771.00;;;;5031533;28;20202;-67
2020/12/15 08:15:30;;;;;;;12.95;9.35;;;5.50;91.80;13.10;99761.00;;;;5031065;28;20274;-66
2020/12/15 08:17:56;;;;;;;12.43;8.68;;;5.50;91.80;13.00;99773.00;;;;5031939;28;20203;-67
2020/12/15 08:20:30;;;;;;;15.87;10.17;;;5.50;91.80;13.10;99778.00;;;;5015378;28;20565;-67
2020/12/15 08:23:07;;;;;;;14.10;9.85;;;5.50;91.80;13.10;99782.00;;;;5031228;28;20485;-67
2020/12/15 08:25:37;;;;;;;13.00;9.85;;;5.50;91.80;13.00;99782.00;;;;5014859;28;20612;-66
2020/12/15 08:28:11;;;;;;;13.45;10.25;;;5.50;91.80;13.10;99773.00;;;;5031725;28;20311;-67
2020/12/15 08:30:37;;;;;;;14.95;10.02;;;5.50;91.80;13.10;99778.00;;;;5031376;28;20664;-67
2020/12/15 08:33:03;;;;;;;14.40;10.80;;;5.50;91.80;13.10;99770.00;;;;5031597;28;20198;-67
2020/12/15 08:35:28;;;;;;;12.83;9.07;;;5.50;91.80;13.10;99784.00;;;;5031533;28;20950;-66
2020/12/15 08:38:00;;;;;;;13.47;10.33;;;5.50;91.80;12.90;99777.00;;;;5030242;28;20295;-66
2020/12/15 08:40:27;;;;;;;14.07;11.27;;;5.50;91.80;13.00;99788.00;;;;5034087;28;20187;-66
2020/12/15 08:42:59;;;;;;;13.32;9.32;;;5.50;91.80;13.10;99789.00;;;;5014697;28;20542;-67
2020/12/15 08:45:26;;;;;;;14.65;10.00;;;5.50;91.80;13.10;99788.00;;;;5027976;28;20182;-67
2020/12/15 08:47:54;;;;;;;14.10;9.88;;;5.50;91.80;13.20;99786.00;;;;5018119;28;20595;-67
2020/12/15 08:50:19;;;;;;;13.07;9.63;;;5.50;91.80;13.20;99780.00;;;;5000508;28;20182;-66
2020/12/15 08:52:45;;;;;;;13.90;10.13;;;5.50;91.80;13.00;99786.00;;;;5050523;28;20613;-67
2020/12/15 08:55:11;;;;;;;13.77;10.53;;;5.50;91.80;13.20;99790.00;;;;5032492;28;20186;-67
2020/12/15 08:57:37;;;;;;;14.10;10.40;;;5.50;91.80;13.10;99795.00;;;;5036420;28;20202;-66
2020/12/15 09:00:15;;;;;;;16.77;10.60;;;5.50;91.80;13.30;99803.00;;;;5031095;28;20211;-67
2020/12/15 09:02:42;;;;;;;12.68;9.10;;;5.50;91.80;13.30;99798.00;;;;5029950;28;20449;-67
2020/12/15 09:05:12;;;;;;;13.15;8.73;;;5.50;91.80;13.10;99790.00;;;;5028963;28;20224;-66
2020/12/15 09:07:40;;;;;;;13.45;10.13;;;5.50;91.80;13.00;99787.00;;;;5028457;28;20203;-67
2020/12/15 09:10:15;;;;;;;12.70;9.48;;;5.50;91.80;13.10;99792.00;;;;5028597;28;20179;-66
2020/12/15 09:12:45;;;;;;;14.95;10.48;;;5.50;91.80;13.00;99799.00;;;;5012757;28;20225;-67
2020/12/15 09:15:11;;;;;;;14.43;10.88;;;5.50;92.20;13.10;99788.00;;;;5029640;28;20178;-67
2020/12/15 09:17:37;;;;;;;13.83;10.30;;;5.50;91.80;13.00;99789.00;;;;5028917;28;20213;-67
2020/12/15 09:20:04;;;;;;;12.73;9.70;;;5.50;91.80;13.20;99801.00;;;;5028894;28;20522;-67
2020/12/15 09:22:30;;;;;;;12.60;9.05;;;5.50;91.80;13.10;99789.00;;;;5030338;28;20234;-66
2020/12/15 09:25:01;;;;;;;13.23;9.70;;;5.50;91.80;13.10;99799.00;;;;5028667;28;20202;-68
2020/12/15 09:27:27;;;;;;;13.52;9.85;;;5.50;91.80;13.10;99788.00;;;;5029041;28;20206;-66
2020/12/15 09:29:53;;;;;;;13.63;10.43;;;5.50;91.80;13.20;99781.00;;;;5029725;28;20187;-66
2020/12/15 09:32:19;;;;;;;12.80;10.02;;;5.50;91.80;13.10;99795.00;;;;5028468;28;20488;-66
2020/12/15 09:34:45;;;;;;;14.60;10.57;;;5.60;91.80;13.20;99784.00;;;;5048583;28;20237;-67
2020/12/15 09:37:12;;;;;;;13.68;10.45;;;5.50;91.80;13.10;99779.00;;;;5033344;28;20284;-67
2020/12/15 09:39:39;;;;;;;13.35;8.95;;;5.50;91.80;13.10;99785.00;;;;4999087;28;20217;-67
2020/12/15 09:42:05;;;;;;;12.75;9.25;;;5.50;91.80;13.10;99784.00;;;;5049836;28;20264;-67
2020/12/15 09:44:31;;;;;;;14.00;9.60;;;5.50;91.80;13.00;99796.00;;;;5032551;28;20599;-67
2020/12/15 09:46:57;;;;;;;15.80;9.67;;;5.50;91.80;13.20;99783.00;;;;5027093;28;21001;-67
2020/12/15 09:49:22;;;;;;;14.10;9.60;;;5.50;91.80;13.20;99786.00;;;;5033285;28;20187;-66
2020/12/15 09:51:48;;;;;;;14.80;10.37;;;5.50;91.80;13.10;99771.00;;;;5029814;28;20237;-67
2020/12/15 09:54:14;;;;;;;14.83;9.70;;;5.50;91.80;13.10;99778.00;;;;5043148;28;20486;-67
2020/12/15 09:56:44;;;;;;;14.90;10.60;;;5.50;91.80;13.10;99777.00;;;;5048618;28;20289;-67
2020/12/15 09:59:14;;;;;;;14.27;10.63;;;5.50;91.80;13.10;99760.00;;;;5015715;28;20217;-66
2020/12/15 10:01:41;;;;;;;14.25;10.48;;;5.50;91.80;13.10;99764.00;;;;5031291;28;20234;-66
2020/12/15 10:04:07;;;;;;;13.98;9.45;;;5.50;91.80;13.20;99766.00;;;;5049258;28;20224;-67
2020/12/15 10:06:32;;;;;;;13.80;10.20;;;5.50;91.80;13.10;99757.00;;;;5015130;28;20238;-67
2020/12/15 10:08:58;;;;;;;14.93;10.00;;;5.50;91.80;13.00;99768.00;;;;5027881;28;20512;-67
2020/12/15 10:11:25;;;;;;;14.35;10.15;;;5.50;91.80;13.10;99769.00;;;;5030271;28;20197;-67
2020/12/15 10:13:51;;;;;;;13.65;9.60;;;5.50;91.80;13.10;99769.00;;;;5030934;28;20183;-66
2020/12/15 10:16:16;;;;;;;14.60;9.40;;;5.50;91.80;13.20;99766.00;;;;5027792;28;20293;-67
2020/12/15 10:18:42;;;;;;;13.97;9.63;;;5.50;91.80;13.30;99774.00;;;;5029065;28;20469;-67
2020/12/15 10:21:08;;;;;;;13.70;10.50;;;5.50;91.80;13.10;99766.00;;;;5030323;28;20207;-67
2020/12/15 10:23:34;;;;;;;13.93;10.23;;;5.50;91.80;13.20;99760.00;;;;5027532;28;20287;-67
2020/12/15 10:26:01;;;;;;;12.77;10.50;;;5.50;91.80;13.10;99758.00;;;;5028628;28;20221;-67
2020/12/15 10:28:27;;;;;;;14.70;10.82;;;5.50;92.20;13.20;99773.00;;;;5028945;28;20190;-67
2020/12/15 10:30:53;;;;;;;13.90;10.60;;;5.60;91.80;13.00;99773.00;;;;5029014;28;20187;-67
2020/12/15 10:33:18;;;;;;;14.20;9.50;;;5.60;91.80;13.10;99766.00;;;;5030339;28;20337;-67
2020/12/15 10:35:44;;;;;;;13.00;9.67;;;5.50;91.80;13.10;99767.00;;;;5029993;28;20268;-67
2020/12/15 10:38:10;;;;;;;12.53;9.47;;;5.50;91.80;13.10;99765.00;;;;5027754;28;20186;-67
2020/12/15 10:40:35;;;;;;;15.00;10.93;;;5.50;91.80;13.30;99780.00;;;;5027874;28;20233;-67
2020/12/15 10:43:02;;;;;;;15.57;10.50;;;5.50;91.80;13.30;99786.00;;;;5044065;28;20201;-67
2020/12/15 10:45:28;;;;;;;15.20;10.77;;;5.50;91.80;13.20;99775.00;;;;5029606;28;20202;-67
2020/12/15 10:47:53;;;;;;;13.77;10.87;;;5.50;91.80;13.00;99764.00;;;;5048595;28;20569;-67